Terminal Aerodrome Forecast
Issued by NWS Twin Cities, MN

Home | Current Version | Previous Version | Text Only | Print | Product List | Glossary On
Versions: 1 2 3 4 5 6 7 8 9 10 11 12 13
000
FTUS43 KMPX 190520
TAFEAU
TAF
KEAU 190520Z 1906/2006 10010KT P6SM BKN100 OVC200
     FM190900 10013G20KT P6SM -RA BKN070 OVC200
     FM191100 10014G21KT 6SM -RA OVC050
     FM191400 12016G22KT 4SM -RA SCT015 OVC025
     FM192000 19012G17KT P6SM VCSH OVC020
     FM200100 32008KT P6SM BKN025=

USA.gov is the U.S. government's official web portal to all federal, state and local government web resources and services.